Kenai Fjords National Park, AK

1:24 AM AKST on January 26, 2015 (GMT -0900)
APRSWXNET Kenai AK US | Change Station
CLOSE
Current Station
Personal Weather Station
Location: Kenai, AK
Elevation: 82 ft
Nearby Weather Stations

Elev 82 ft 60.58 °N, 151.31 °W | Updated 28 minutes ago

Clear
Clear
1 °F
Feels Like 1 °F
N
2
Wind Variable Wind from East
Gusts 6.0 mph

Today
High -- | Low -- °F
--% Chance of Precip.
Yesterday
High -- | Low -- °F
Precip. -- in
9:35 AM 5:00 PM
Waxing Crescent, 41% visible
Pressure 30.04 in
Visibility 10.0 miles
Clouds Clear
Windchill 1 °F
Dew Point -2 °F
Humidity 85%
Rainfall 0.00 in
Snow Depth Not available.
UV 0 out of 12
Pollen Not available.
Air Quality Not available.
Flu Activity Not available.
METAR PAEN 260953Z AUTO 04009KT 10SM CLR M22/M24 A3002 RMK AO2 SLP170 T12171239 TSNO

More Conditions Fewer Conditions

Pressure 30.04 in
Visibility 10.0 miles
Clouds Clear
Windchill 1 °F
Dew Point -2 °F
Humidity 85%
Rainfall 0.00 in
Snow Depth Not available.
UV 0 out of 12
Pollen Not available.
Air Quality Not available.
Flu Activity Not available.
METAR PAEN 260953Z AUTO 04009KT 10SM CLR M22/M24 A3002 RMK AO2 SLP170 T12171239 TSNO

More Conditions Fewer Conditions

10-Day Weather Forecast

Almanac

Astronomy

Jan. 26, 2015 Rise Set
Actual Time
Civil Twilight
Nautical Twilight
Astronomical Twilight
Moon
Length of Visible Light
Length of Day
Tomorrow will be .
, % of the Moon is Illuminated

Today's Extremes

State Highs State Lows

Community

WunderPhotos

Upload Photos

1,790,171 photos uploaded!

WunderBlogs® & News

Nearby

Air Quality

  Air Quality AQ Index Pollutant
Not available.

Snow Depth

Station Depth Elevation

Earthquake Activity

City Distance Mag. Time & Date
Minimum magnitude displayed is 2.5.

Coastal Water Temperatures

Place Temperature

Nearby Weather Stations